CRL600 TFFR-TFFF
Flight info
| Callsign | CRL600 |
|---|---|
| Flight time | 0h 27m |
| Altitude | 13000 |
| Route | KATI2F KATIM DCT KAREX |
| Aircraft | B734/M-SDE2E3FGHIRWXY/LB1 |
Departure
| Time | 2026-04-21 15:13 |
|---|---|
| Airport | Maryse Condé International Airport (TFFR) |
Arrival
| Time | 2026-04-21 15:40 |
|---|---|
| Airport | Martinique Aimé Césaire International Airport (TFFF) |
| Time | Latitude | Longitude | Altitude | Speed | Heading |
|---|---|---|---|---|---|
| 2026-04-21 14:46 | 16.26917 | -61.52673 | 20 ft | 0 kts | 10° |
| 2026-04-21 14:56 | 16.26901 | -61.52676 | 20 ft | 4 kts | 8° |
| 2026-04-21 14:56 | 16.26874 | -61.52679 | 22 ft | 4 kts | 4° |
| 2026-04-21 14:56 | 16.26849 | -61.52680 | 20 ft | 4 kts | 356° |
| 2026-04-21 14:57 | 16.26823 | -61.52675 | 24 ft | 4 kts | 331° |
| 2026-04-21 14:57 | 16.26809 | -61.52663 | 22 ft | 1 kts | 282° |
| 2026-04-21 14:57 | 16.26809 | -61.52662 | 22 ft | 4 kts | 282° |
| 2026-04-21 15:04 | 16.26809 | -61.52663 | 20 ft | 0 kts | 282° |
| 2026-04-21 15:04 | 16.26811 | -61.52672 | 20 ft | 2 kts | 282° |
| 2026-04-21 15:04 | 16.26816 | -61.52698 | 20 ft | 5 kts | 282° |
| 2026-04-21 15:04 | 16.26825 | -61.52742 | 22 ft | 7 kts | 280° |
| 2026-04-21 15:05 | 16.26835 | -61.52798 | 20 ft | 8 kts | 281° |
| 2026-04-21 15:05 | 16.26837 | -61.52911 | 20 ft | 8 kts | 239° |
| 2026-04-21 15:05 | 16.26792 | -61.52938 | 20 ft | 8 kts | 191° |
| 2026-04-21 15:06 | 16.26741 | -61.52948 | 20 ft | 7 kts | 191° |
| 2026-04-21 15:06 | 16.26691 | -61.52959 | 20 ft | 7 kts | 191° |
| 2026-04-21 15:06 | 16.26639 | -61.52969 | 21 ft | 8 kts | 190° |
| 2026-04-21 15:06 | 16.26583 | -61.52980 | 20 ft | 8 kts | 190° |
| 2026-04-21 15:07 | 16.26527 | -61.52994 | 19 ft | 8 kts | 207° |
| 2026-04-21 15:07 | 16.26504 | -61.53045 | 19 ft | 8 kts | 273° |
| 2026-04-21 15:07 | 16.26516 | -61.53103 | 19 ft | 9 kts | 281° |
| 2026-04-21 15:07 | 16.26530 | -61.53184 | 19 ft | 14 kts | 281° |
| 2026-04-21 15:08 | 16.26552 | -61.53303 | 18 ft | 19 kts | 281° |
| 2026-04-21 15:08 | 16.26579 | -61.53451 | 22 ft | 21 kts | 281° |
| 2026-04-21 15:08 | 16.26607 | -61.53599 | 23 ft | 21 kts | 281° |
| 2026-04-21 15:08 | 16.26632 | -61.53744 | 20 ft | 21 kts | 280° |
| 2026-04-21 15:09 | 16.26661 | -61.53890 | 18 ft | 20 kts | 281° |
| 2026-04-21 15:09 | 16.26686 | -61.54025 | 18 ft | 20 kts | 281° |
| 2026-04-21 15:09 | 16.26711 | -61.54165 | 15 ft | 19 kts | 281° |
| 2026-04-21 15:09 | 16.26737 | -61.54297 | 14 ft | 18 kts | 281° |
| 2026-04-21 15:10 | 16.26741 | -61.54326 | 14 ft | 3 kts | 269° |
| 2026-04-21 15:10 | 16.26738 | -61.54345 | 13 ft | 3 kts | 252° |
| 2026-04-21 15:10 | 16.26726 | -61.54366 | 13 ft | 4 kts | 238° |
| 2026-04-21 15:10 | 16.26710 | -61.54392 | 12 ft | 5 kts | 238° |
| 2026-04-21 15:11 | 16.26705 | -61.54423 | 11 ft | 6 kts | 289° |
| 2026-04-21 15:11 | 16.26737 | -61.54429 | 12 ft | 6 kts | 41° |
| 2026-04-21 15:11 | 16.26751 | -61.54392 | 15 ft | 5 kts | 84° |
| 2026-04-21 15:11 | 16.26746 | -61.54353 | 13 ft | 5 kts | 101° |
| 2026-04-21 15:12 | 16.26735 | -61.54297 | 14 ft | 15 kts | 101° |
| 2026-04-21 15:12 | 16.26675 | -61.53976 | 18 ft | 76 kts | 101° |
| 2026-04-21 15:12 | 16.26542 | -61.53244 | 18 ft | 127 kts | 101° |
| 2026-04-21 15:12 | 16.26337 | -61.52252 | 238 ft | 142 kts | 104° |
| 2026-04-21 15:13 | 16.26212 | -61.51590 | 556 ft | 140 kts | 102° |
| 2026-04-21 15:13 | 16.25965 | -61.50152 | 791 ft | 169 kts | 99° |
| 2026-04-21 15:13 | 16.25771 | -61.48954 | 1296 ft | 168 kts | 98° |
| 2026-04-21 15:13 | 16.25539 | -61.47712 | 1808 ft | 177 kts | 97° |
| 2026-04-21 15:14 | 16.25281 | -61.46342 | 2012 ft | 206 kts | 99° |
| 2026-04-21 15:14 | 16.24990 | -61.44813 | 2211 ft | 226 kts | 99° |
| 2026-04-21 15:14 | 16.24674 | -61.43168 | 2576 ft | 235 kts | 102° |
| 2026-04-21 15:14 | 16.23931 | -61.41666 | 2954 ft | 249 kts | 131° |
| 2026-04-21 15:15 | 16.22379 | -61.40704 | 3322 ft | 267 kts | 163° |
| 2026-04-21 15:15 | 16.20505 | -61.40487 | 3987 ft | 273 kts | 178° |
| 2026-04-21 15:15 | 16.18605 | -61.40543 | 4784 ft | 273 kts | 181° |
| 2026-04-21 15:15 | 16.16690 | -61.40644 | 5419 ft | 278 kts | 181° |
| 2026-04-21 15:16 | 16.14767 | -61.40742 | 6100 ft | 281 kts | 181° |
| 2026-04-21 15:16 | 16.12806 | -61.40830 | 6803 ft | 284 kts | 181° |
| 2026-04-21 15:16 | 16.10829 | -61.40908 | 7547 ft | 285 kts | 181° |
| 2026-04-21 15:16 | 16.08821 | -61.40980 | 8259 ft | 287 kts | 181° |
| 2026-04-21 15:17 | 16.06827 | -61.41046 | 8965 ft | 290 kts | 181° |
| 2026-04-21 15:17 | 16.04798 | -61.41111 | 9728 ft | 293 kts | 181° |
| 2026-04-21 15:17 | 16.02739 | -61.41176 | 10361 ft | 301 kts | 182° |
| 2026-04-21 15:17 | 16.00572 | -61.41244 | 10531 ft | 324 kts | 182° |
| 2026-04-21 15:18 | 15.98252 | -61.41304 | 10825 ft | 340 kts | 181° |
| 2026-04-21 15:18 | 15.95854 | -61.41297 | 11369 ft | 347 kts | 180° |
| 2026-04-21 15:18 | 15.93428 | -61.41261 | 12063 ft | 350 kts | 180° |
| 2026-04-21 15:18 | 15.90982 | -61.41219 | 12717 ft | 354 kts | 180° |
| 2026-04-21 15:19 | 15.88512 | -61.41179 | 13038 ft | 354 kts | 180° |
| 2026-04-21 15:19 | 15.86057 | -61.41143 | 13059 ft | 354 kts | 180° |
| 2026-04-21 15:19 | 15.84424 | -61.41120 | 13075 ft | 356 kts | 180° |
| 2026-04-21 15:19 | 15.81132 | -61.41078 | 13080 ft | 356 kts | 181° |
| 2026-04-21 15:20 | 15.78641 | -61.41049 | 13061 ft | 356 kts | 180° |
| 2026-04-21 15:20 | 15.77006 | -61.41030 | 13056 ft | 355 kts | 180° |
| 2026-04-21 15:20 | 15.74549 | -61.41001 | 13063 ft | 354 kts | 181° |
| 2026-04-21 15:20 | 15.72080 | -61.40973 | 13060 ft | 353 kts | 180° |
| 2026-04-21 15:21 | 15.69630 | -61.40945 | 13064 ft | 352 kts | 180° |
| 2026-04-21 15:21 | 15.67172 | -61.40916 | 13069 ft | 352 kts | 180° |
| 2026-04-21 15:21 | 15.64726 | -61.40889 | 13075 ft | 351 kts | 180° |
| 2026-04-21 15:21 | 15.62279 | -61.40861 | 13069 ft | 352 kts | 181° |
| 2026-04-21 15:22 | 15.59829 | -61.40833 | 13078 ft | 352 kts | 181° |
| 2026-04-21 15:22 | 15.57386 | -61.40805 | 13082 ft | 353 kts | 180° |
| 2026-04-21 15:22 | 15.54929 | -61.40777 | 13082 ft | 354 kts | 180° |
| 2026-04-21 15:22 | 15.52465 | -61.40749 | 13077 ft | 354 kts | 180° |
| 2026-04-21 15:23 | 15.49999 | -61.40721 | 13086 ft | 355 kts | 181° |
| 2026-04-21 15:23 | 15.47549 | -61.40693 | 13069 ft | 355 kts | 180° |
| 2026-04-21 15:23 | 15.45077 | -61.40665 | 13035 ft | 355 kts | 180° |
| 2026-04-21 15:23 | 15.42604 | -61.40636 | 13028 ft | 355 kts | 180° |
| 2026-04-21 15:24 | 15.40122 | -61.40608 | 13013 ft | 355 kts | 181° |
| 2026-04-21 15:24 | 15.37656 | -61.40477 | 13013 ft | 355 kts | 175° |
| 2026-04-21 15:24 | 15.35209 | -61.40138 | 13025 ft | 355 kts | 172° |
| 2026-04-21 15:24 | 15.32773 | -61.39731 | 13022 ft | 354 kts | 171° |
| 2026-04-21 15:25 | 15.30343 | -61.39314 | 13028 ft | 354 kts | 172° |
| 2026-04-21 15:25 | 15.27936 | -61.38909 | 13025 ft | 353 kts | 172° |
| 2026-04-21 15:25 | 15.25538 | -61.38517 | 13011 ft | 343 kts | 172° |
| 2026-04-21 15:25 | 15.23216 | -61.38146 | 12995 ft | 332 kts | 172° |
| 2026-04-21 15:26 | 15.20954 | -61.37792 | 12766 ft | 325 kts | 172° |
| 2026-04-21 15:26 | 15.18739 | -61.37449 | 12503 ft | 320 kts | 173° |
| 2026-04-21 15:26 | 15.16549 | -61.37112 | 12204 ft | 316 kts | 173° |
| 2026-04-21 15:26 | 15.14379 | -61.36780 | 11877 ft | 314 kts | 173° |
| 2026-04-21 15:27 | 15.12223 | -61.36451 | 11550 ft | 312 kts | 173° |
| 2026-04-21 15:27 | 15.10078 | -61.36123 | 11225 ft | 311 kts | 173° |
| 2026-04-21 15:27 | 15.07943 | -61.35798 | 10898 ft | 309 kts | 173° |
| 2026-04-21 15:27 | 15.05814 | -61.35473 | 10570 ft | 307 kts | 173° |
| 2026-04-21 15:28 | 15.03739 | -61.35156 | 10373 ft | 301 kts | 173° |
| 2026-04-21 15:28 | 15.01698 | -61.34844 | 10251 ft | 292 kts | 174° |
| 2026-04-21 15:28 | 14.99713 | -61.34541 | 10123 ft | 285 kts | 174° |
| 2026-04-21 15:28 | 14.97774 | -61.34246 | 9918 ft | 280 kts | 174° |
| 2026-04-21 15:29 | 14.95846 | -61.33953 | 9612 ft | 279 kts | 173° |
| 2026-04-21 15:29 | 14.93929 | -61.33662 | 9321 ft | 278 kts | 173° |
| 2026-04-21 15:29 | 14.92022 | -61.33372 | 9030 ft | 276 kts | 174° |
| 2026-04-21 15:29 | 14.90117 | -61.33082 | 8760 ft | 275 kts | 173° |
| 2026-04-21 15:30 | 14.88233 | -61.32796 | 8468 ft | 273 kts | 173° |
| 2026-04-21 15:30 | 14.86357 | -61.32511 | 8193 ft | 272 kts | 173° |
| 2026-04-21 15:30 | 14.84491 | -61.32227 | 7917 ft | 271 kts | 172° |
| 2026-04-21 15:30 | 14.82657 | -61.31948 | 7649 ft | 269 kts | 172° |
| 2026-04-21 15:31 | 14.80806 | -61.31667 | 7375 ft | 268 kts | 171° |
| 2026-04-21 15:31 | 14.78960 | -61.31386 | 7098 ft | 268 kts | 171° |
| 2026-04-21 15:31 | 14.77120 | -61.31107 | 6827 ft | 267 kts | 171° |
| 2026-04-21 15:31 | 14.75280 | -61.30827 | 6552 ft | 266 kts | 170° |
| 2026-04-21 15:32 | 14.73444 | -61.30548 | 6244 ft | 267 kts | 170° |
| 2026-04-21 15:32 | 14.71604 | -61.30268 | 5945 ft | 267 kts | 170° |
| 2026-04-21 15:32 | 14.69771 | -61.29989 | 5666 ft | 266 kts | 170° |
| 2026-04-21 15:32 | 14.67945 | -61.29711 | 5389 ft | 265 kts | 170° |
| 2026-04-21 15:33 | 14.66124 | -61.29435 | 5119 ft | 263 kts | 170° |
| 2026-04-21 15:33 | 14.64316 | -61.29160 | 4856 ft | 262 kts | 170° |
| 2026-04-21 15:33 | 14.62518 | -61.28887 | 4586 ft | 260 kts | 170° |
| 2026-04-21 15:33 | 14.60731 | -61.28616 | 4320 ft | 259 kts | 170° |
| 2026-04-21 15:34 | 14.58970 | -61.28349 | 4194 ft | 251 kts | 170° |
| 2026-04-21 15:34 | 14.57276 | -61.28045 | 4071 ft | 243 kts | 160° |
| 2026-04-21 15:34 | 14.55934 | -61.27127 | 3962 ft | 230 kts | 127° |
| 2026-04-21 15:34 | 14.55244 | -61.25696 | 3869 ft | 219 kts | 103° |
| 2026-04-21 15:35 | 14.55179 | -61.24192 | 3815 ft | 204 kts | 81° |
| 2026-04-21 15:35 | 14.55376 | -61.22789 | 3675 ft | 194 kts | 82° |
| 2026-04-21 15:35 | 14.55566 | -61.21438 | 3509 ft | 185 kts | 81° |
| 2026-04-21 15:35 | 14.55767 | -61.20152 | 3370 ft | 181 kts | 80° |
| 2026-04-21 15:36 | 14.55979 | -61.18869 | 3161 ft | 180 kts | 80° |
| 2026-04-21 15:36 | 14.56193 | -61.17591 | 2933 ft | 181 kts | 80° |
| 2026-04-21 15:36 | 14.56410 | -61.16305 | 2700 ft | 182 kts | 80° |
| 2026-04-21 15:36 | 14.56628 | -61.15010 | 2459 ft | 184 kts | 80° |
| 2026-04-21 15:37 | 14.56846 | -61.13716 | 2230 ft | 180 kts | 79° |
| 2026-04-21 15:37 | 14.57052 | -61.12492 | 1996 ft | 169 kts | 80° |
| 2026-04-21 15:37 | 14.57253 | -61.11302 | 1772 ft | 163 kts | 80° |
| 2026-04-21 15:37 | 14.57443 | -61.10181 | 1558 ft | 157 kts | 80° |
| 2026-04-21 15:38 | 14.57623 | -61.09112 | 1382 ft | 149 kts | 80° |
| 2026-04-21 15:38 | 14.57799 | -61.08069 | 1200 ft | 146 kts | 80° |
| 2026-04-21 15:38 | 14.57972 | -61.07039 | 928 ft | 147 kts | 80° |
| 2026-04-21 15:38 | 14.58152 | -61.05996 | 747 ft | 146 kts | 79° |
| 2026-04-21 15:39 | 14.58321 | -61.04973 | 584 ft | 151 kts | 79° |
| 2026-04-21 15:39 | 14.58509 | -61.03934 | 502 ft | 146 kts | 77° |
| 2026-04-21 15:39 | 14.58669 | -61.02906 | 278 ft | 143 kts | 77° |
| 2026-04-21 15:39 | 14.58837 | -61.01918 | 69 ft | 140 kts | 77° |
| 2026-04-21 15:40 | 14.58999 | -61.00963 | 28 ft | 126 kts | 77° |
| 2026-04-21 15:40 | 14.59134 | -61.00158 | 15 ft | 95 kts | 80° |
| 2026-04-21 15:40 | 14.59209 | -60.99726 | 23 ft | 27 kts | 80° |
| 2026-04-21 15:40 | 14.59275 | -60.99663 | 21 ft | 14 kts | 356° |
| 2026-04-21 15:41 | 14.59370 | -60.99678 | 20 ft | 13 kts | 345° |
| 2026-04-21 15:41 | 14.59405 | -60.99716 | 20 ft | 6 kts | 294° |
| 2026-04-21 15:41 | 14.59399 | -60.99759 | 20 ft | 6 kts | 258° |
| 2026-04-21 15:41 | 14.59390 | -60.99803 | 19 ft | 6 kts | 259° |
| 2026-04-21 15:42 | 14.59382 | -60.99849 | 19 ft | 7 kts | 259° |
| 2026-04-21 15:42 | 14.59372 | -60.99897 | 18 ft | 7 kts | 259° |
| 2026-04-21 15:42 | 14.59379 | -60.99938 | 19 ft | 6 kts | 299° |
| 2026-04-21 15:42 | 14.59400 | -60.99974 | 18 ft | 6 kts | 340° |
| 2026-04-21 15:43 | 14.59445 | -60.99970 | 19 ft | 3 kts | 7° |